createdAt,value
2023-05-04T00:00:58.423Z,5.03
2023-05-04T00:03:25.188Z,3.00
2023-05-04T00:05:51.998Z,3.60
2023-05-04T00:08:18.533Z,3.30
2023-05-04T00:10:45.055Z,3.43
2023-05-04T00:13:11.871Z,3.87
2023-05-04T00:15:38.428Z,3.87
2023-05-04T00:18:04.973Z,7.13
2023-05-04T00:20:31.505Z,4.60
2023-05-04T00:22:58.008Z,3.50
2023-05-04T00:25:24.533Z,3.60
2023-05-04T00:27:51.028Z,2.97
2023-05-04T00:30:17.516Z,3.70
2023-05-04T00:32:44.129Z,4.13
2023-05-04T00:35:10.933Z,3.57
2023-05-04T00:37:37.413Z,4.03
2023-05-04T00:40:04.106Z,4.63
2023-05-04T00:42:30.778Z,3.73
2023-05-04T00:44:57.241Z,3.93
2023-05-04T00:47:24.730Z,3.47
2023-05-04T00:49:51.916Z,4.60
2023-05-04T00:52:19.329Z,3.83
2023-05-04T00:54:47.024Z,3.47
2023-05-04T00:57:14.701Z,4.50
2023-05-04T00:59:41.512Z,4.40
2023-05-04T01:02:08.020Z,4.00
2023-05-04T01:04:34.543Z,4.27
2023-05-04T01:07:06.891Z,4.47
2023-05-04T01:09:38.047Z,4.43
2023-05-04T01:12:08.981Z,3.90
2023-05-04T01:14:35.792Z,4.40
2023-05-04T01:17:04.096Z,4.43
2023-05-04T01:19:31.090Z,4.27
2023-05-04T01:21:57.667Z,4.17
2023-05-04T01:24:27.980Z,4.33
2023-05-04T01:26:56.450Z,4.37
2023-05-04T01:29:27.790Z,3.80
2023-05-04T01:31:55.081Z,3.87
2023-05-04T01:34:21.822Z,4.00
2023-05-04T01:36:48.866Z,3.70
2023-05-04T01:39:16.043Z,3.50
2023-05-04T01:41:42.658Z,3.57
2023-05-04T01:44:09.114Z,3.87
2023-05-04T01:46:35.799Z,3.63
2023-05-04T01:49:02.413Z,3.00
2023-05-04T01:51:29.267Z,3.87
2023-05-04T01:53:55.820Z,3.60
2023-05-04T01:56:22.381Z,3.53
2023-05-04T01:58:48.878Z,4.83
2023-05-04T02:01:15.702Z,3.60
2023-05-04T02:03:46.605Z,4.30
2023-05-04T02:06:13.274Z,4.47
2023-05-04T02:08:39.983Z,4.17
2023-05-04T02:11:06.661Z,4.20
2023-05-04T02:13:33.590Z,5.53
2023-05-04T02:16:00.221Z,4.60
2023-05-04T02:18:26.806Z,3.73
2023-05-04T02:20:53.284Z,3.67
2023-05-04T02:23:19.760Z,3.67
2023-05-04T02:25:46.901Z,3.37
2023-05-04T02:28:13.380Z,3.43
2023-05-04T02:30:41.007Z,4.20
2023-05-04T02:33:12.309Z,4.40
2023-05-04T02:35:38.780Z,3.63
2023-05-04T02:38:05.284Z,3.53
2023-05-04T02:40:31.779Z,4.00
2023-05-04T02:42:58.251Z,3.70
2023-05-04T02:45:24.842Z,3.33
2023-05-04T02:47:51.445Z,4.07
2023-05-04T02:50:18.054Z,3.87
2023-05-04T02:52:44.596Z,3.47
2023-05-04T02:55:11.096Z,3.23
2023-05-04T02:57:37.597Z,4.00
2023-05-04T03:00:07.063Z,3.03
2023-05-04T03:02:34.040Z,2.70
2023-05-04T03:05:01.361Z,3.07
2023-05-04T03:07:28.091Z,3.40
2023-05-04T03:09:54.689Z,2.80
2023-05-04T03:12:21.500Z,3.07
2023-05-04T03:14:48.193Z,2.80
2023-05-04T03:17:14.631Z,3.33
2023-05-04T03:19:41.879Z,3.07
2023-05-04T03:22:08.408Z,3.67
2023-05-04T03:24:34.954Z,3.33
2023-05-04T03:27:01.852Z,3.10
2023-05-04T03:29:28.421Z,2.60
2023-05-04T03:31:55.153Z,3.17
2023-05-04T03:34:22.904Z,3.33
2023-05-04T03:36:49.415Z,3.70
2023-05-04T03:39:19.211Z,3.40
2023-05-04T03:41:45.816Z,3.77
2023-05-04T03:44:12.327Z,3.60
2023-05-04T03:46:38.878Z,3.80
2023-05-04T03:49:05.408Z,3.50
2023-05-04T03:51:31.976Z,3.87
2023-05-04T03:53:58.480Z,4.11
2023-05-04T03:56:25.082Z,3.93
2023-05-04T03:58:51.564Z,3.80
2023-05-04T04:01:18.003Z,2.97
2023-05-04T04:03:44.783Z,4.37
2023-05-04T04:06:13.358Z,3.83
2023-05-04T04:08:39.804Z,9.90
2023-05-04T04:11:06.494Z,4.07
2023-05-04T04:13:32.987Z,4.37
2023-05-04T04:15:59.536Z,3.97
2023-05-04T04:18:26.058Z,4.40
2023-05-04T04:20:52.512Z,4.00
2023-05-04T04:23:19.563Z,4.00
2023-05-04T04:25:46.452Z,4.27
2023-05-04T04:28:13.573Z,4.07
2023-05-04T04:30:40.114Z,3.57
2023-05-04T04:33:06.599Z,3.90
2023-05-04T04:35:33.259Z,4.10
2023-05-04T04:38:01.614Z,3.10
2023-05-04T04:40:29.669Z,3.40
2023-05-04T04:42:56.468Z,2.93
2023-05-04T04:45:23.774Z,2.97
2023-05-04T04:47:50.870Z,3.00
2023-05-04T04:50:17.668Z,3.10
2023-05-04T04:52:44.395Z,3.00
2023-05-04T04:55:11.132Z,6.90
2023-05-04T04:57:37.627Z,4.40
2023-05-04T05:00:09.542Z,3.50
2023-05-04T05:02:36.418Z,4.70
2023-05-04T05:05:03.484Z,3.50
2023-05-04T05:07:30.050Z,3.70
2023-05-04T05:09:56.546Z,3.37
2023-05-04T05:12:23.050Z,3.40
2023-05-04T05:14:50.807Z,4.33
2023-05-04T05:17:17.906Z,3.17
2023-05-04T05:19:44.351Z,3.57
2023-05-04T05:22:10.920Z,4.40
2023-05-04T05:24:37.674Z,3.63
2023-05-04T05:27:04.198Z,4.40
2023-05-04T05:29:31.141Z,4.77
2023-05-04T05:31:57.607Z,5.57
2023-05-04T05:34:24.098Z,4.50
2023-05-04T05:36:50.515Z,4.20
2023-05-04T05:39:17.760Z,3.87
2023-05-04T05:41:44.295Z,3.00
2023-05-04T05:44:12.963Z,2.53
2023-05-04T05:46:39.899Z,2.20
2023-05-04T05:49:07.454Z,2.87
2023-05-04T05:51:34.034Z,2.90
2023-05-04T05:54:00.945Z,3.00
2023-05-04T05:56:27.420Z,2.60
2023-05-04T05:58:53.948Z,3.17
2023-05-04T06:01:20.444Z,2.60
2023-05-04T06:03:47.196Z,2.93
2023-05-04T06:06:13.948Z,2.70
2023-05-04T06:08:41.583Z,3.13
2023-05-04T06:11:08.065Z,2.63
2023-05-04T06:13:34.533Z,2.40
2023-05-04T06:16:01.096Z,2.00
2023-05-04T06:18:27.619Z,2.10
2023-05-04T06:21:00.362Z,2.00
2023-05-04T06:23:30.718Z,2.90
2023-05-04T06:25:57.380Z,2.63
2023-05-04T06:28:23.825Z,2.60
2023-05-04T06:30:50.423Z,2.60
2023-05-04T06:33:17.774Z,2.90
2023-05-04T06:35:45.453Z,2.60
2023-05-04T06:38:11.917Z,2.90
2023-05-04T06:40:38.476Z,2.87
2023-05-04T06:43:05.083Z,2.67
2023-05-04T06:45:33.815Z,3.00
2023-05-04T06:48:00.399Z,2.63
2023-05-04T06:50:27.700Z,2.83
2023-05-04T06:53:01.946Z,2.40
2023-05-04T06:55:28.458Z,2.90
2023-05-04T06:57:54.980Z,2.73
2023-05-04T07:00:21.608Z,2.63
2023-05-04T07:02:48.384Z,3.10
2023-05-04T07:05:15.042Z,2.90
2023-05-04T07:07:41.562Z,2.47
2023-05-04T07:10:08.489Z,2.70
2023-05-04T07:12:35.020Z,2.70
2023-05-04T07:15:01.556Z,2.67
2023-05-04T07:17:28.041Z,2.83
2023-05-04T07:19:54.506Z,2.83
2023-05-04T07:22:21.146Z,2.90
2023-05-04T07:24:47.609Z,2.97
2023-05-04T07:27:14.109Z,2.63
2023-05-04T07:29:41.736Z,3.30
2023-05-04T07:32:08.315Z,2.70
2023-05-04T07:34:44.957Z,2.50
2023-05-04T07:37:13.065Z,3.20
2023-05-04T07:39:39.575Z,2.90
2023-05-04T07:42:07.410Z,2.50
2023-05-04T07:44:33.965Z,3.33
2023-05-04T07:47:00.980Z,3.13
2023-05-04T07:49:27.521Z,3.10
2023-05-04T07:51:54.031Z,2.63
2023-05-04T07:54:22.628Z,3.07
2023-05-04T07:56:49.479Z,2.97
2023-05-04T07:59:19.326Z,2.87
2023-05-04T08:01:46.644Z,2.87
2023-05-04T08:04:13.272Z,2.67
2023-05-04T08:06:40.234Z,3.07
2023-05-04T08:09:06.797Z,2.77
2023-05-04T08:11:37.953Z,2.90
2023-05-04T08:14:04.788Z,3.03
2023-05-04T08:16:32.334Z,2.77
2023-05-04T08:18:59.808Z,3.10
2023-05-04T08:21:26.244Z,3.10
2023-05-04T08:23:53.079Z,3.20
2023-05-04T08:26:23.591Z,3.60
2023-05-04T08:28:50.290Z,3.23
2023-05-04T08:31:19.715Z,3.03
2023-05-04T08:33:46.363Z,2.93
2023-05-04T08:36:12.985Z,3.20
2023-05-04T08:38:39.423Z,3.00
2023-05-04T08:41:06.459Z,3.47
2023-05-04T08:43:36.518Z,3.07
2023-05-04T08:46:04.145Z,2.97
2023-05-04T08:48:37.003Z,2.47
2023-05-04T08:51:04.612Z,3.23
2023-05-04T08:53:31.700Z,3.27
2023-05-04T08:56:03.685Z,2.83
2023-05-04T08:58:31.017Z,3.10
2023-05-04T09:00:59.145Z,3.10
2023-05-04T09:03:26.685Z,3.17
2023-05-04T09:05:53.262Z,3.40
2023-05-04T09:08:20.990Z,3.20
2023-05-04T09:10:47.605Z,3.00
2023-05-04T09:13:14.755Z,3.20
2023-05-04T09:15:41.312Z,3.20
2023-05-04T09:18:10.045Z,3.30
2023-05-04T09:20:43.621Z,3.27
2023-05-04T09:23:11.855Z,3.37
2023-05-04T09:25:50.772Z,3.63
2023-05-04T09:28:18.269Z,3.23
2023-05-04T09:30:45.386Z,3.17
2023-05-04T09:33:11.916Z,3.40
2023-05-04T09:35:42.967Z,3.50
2023-05-04T09:38:09.528Z,2.77
2023-05-04T09:40:36.132Z,3.47
2023-05-04T09:43:06.910Z,3.60
2023-05-04T09:45:40.303Z,3.20
2023-05-04T09:48:29.391Z,3.37
2023-05-04T09:50:56.649Z,3.07
2023-05-04T09:53:24.990Z,3.40
2023-05-04T09:55:58.652Z,3.30
2023-05-04T09:58:26.112Z,3.30
2023-05-04T10:00:53.805Z,3.90
2023-05-04T10:03:21.543Z,3.08
2023-05-04T10:05:49.161Z,3.30
2023-05-04T10:08:16.008Z,3.90
2023-05-04T10:10:43.322Z,3.60
2023-05-04T10:13:10.079Z,3.58
2023-05-04T10:15:40.115Z,3.45
2023-05-04T10:18:18.579Z,3.73
2023-05-04T10:20:48.004Z,3.90
2023-05-04T10:23:14.467Z,3.70
2023-05-04T10:25:59.569Z,3.30
2023-05-04T10:28:29.072Z,3.77
2023-05-04T10:30:58.547Z,3.60
2023-05-04T10:33:25.888Z,3.70
2023-05-04T10:35:53.083Z,3.80
2023-05-04T10:38:19.698Z,4.00
2023-05-04T10:40:50.972Z,3.80
2023-05-04T10:43:26.774Z,3.57
2023-05-04T10:45:53.294Z,3.80
2023-05-04T10:48:19.933Z,4.00
2023-05-04T10:50:46.534Z,4.23
2023-05-04T10:53:13.444Z,3.87
2023-05-04T10:55:44.107Z,3.97
2023-05-04T10:58:11.447Z,4.20
2023-05-04T11:00:41.717Z,3.87
2023-05-04T11:03:08.496Z,3.27
2023-05-04T11:05:42.569Z,3.83
2023-05-04T11:08:21.763Z,3.85
2023-05-04T11:10:48.960Z,3.97
2023-05-04T11:13:16.305Z,3.93
2023-05-04T11:15:49.863Z,3.77
2023-05-04T11:18:25.591Z,3.93
2023-05-04T11:20:52.049Z,4.20
2023-05-04T11:23:18.601Z,4.00
2023-05-04T11:25:45.154Z,3.53
2023-05-04T11:28:14.325Z,4.20
2023-05-04T11:30:43.742Z,3.70
2023-05-04T11:33:12.283Z,3.70
2023-05-04T11:35:39.105Z,3.33
2023-05-04T11:38:06.975Z,3.47
2023-05-04T11:40:33.513Z,3.80
2023-05-04T11:43:00.459Z,3.60
2023-05-04T11:45:27.165Z,3.77
2023-05-04T11:47:56.560Z,3.47
2023-05-04T11:50:23.767Z,3.90
2023-05-04T11:52:50.361Z,4.23
2023-05-04T11:55:27.579Z,3.50
2023-05-04T11:57:58.637Z,3.90
2023-05-04T12:00:42.204Z,3.50
2023-05-04T12:03:10.145Z,3.83
2023-05-04T12:05:37.057Z,3.50
2023-05-04T12:08:03.875Z,3.93
2023-05-04T12:10:33.414Z,3.40
2023-05-04T12:12:59.902Z,3.80
2023-05-04T12:15:29.961Z,3.70
2023-05-04T12:17:56.433Z,3.40
2023-05-04T12:20:24.443Z,3.73
2023-05-04T12:22:51.164Z,3.63
2023-05-04T12:25:20.943Z,3.70
2023-05-04T12:27:47.520Z,3.97
2023-05-04T12:30:14.525Z,3.87
2023-05-04T12:32:42.364Z,3.33
2023-05-04T12:35:09.251Z,3.70
2023-05-04T12:37:35.945Z,4.13
2023-05-04T12:40:02.525Z,4.03
2023-05-04T12:42:28.997Z,4.70
2023-05-04T12:44:55.472Z,4.23
2023-05-04T12:47:24.523Z,4.87
2023-05-04T12:49:51.074Z,4.87
2023-05-04T12:52:17.530Z,5.83
2023-05-04T12:54:44.017Z,5.30
2023-05-04T12:57:12.270Z,5.67
2023-05-04T12:59:38.806Z,6.30
2023-05-04T13:02:05.270Z,6.33
2023-05-04T13:04:31.911Z,6.07
2023-05-04T13:06:58.473Z,6.10
2023-05-04T13:09:25.156Z,5.57
2023-05-04T13:11:51.646Z,6.37
2023-05-04T13:14:18.093Z,6.97
2023-05-04T13:16:44.569Z,6.43
2023-05-04T13:19:11.283Z,6.13
2023-05-04T13:21:37.790Z,6.13
2023-05-04T13:24:04.407Z,7.63
2023-05-04T13:26:30.876Z,6.10
2023-05-04T13:28:57.603Z,7.03
2023-05-04T13:31:24.468Z,6.10
2023-05-04T13:33:50.995Z,6.17
2023-05-04T13:36:17.629Z,6.67
2023-05-04T13:38:44.123Z,6.30
2023-05-04T13:41:10.544Z,6.40
2023-05-04T13:43:37.561Z,7.27
2023-05-04T13:46:04.199Z,8.30
2023-05-04T13:48:32.905Z,6.63
2023-05-04T13:50:59.428Z,7.67
2023-05-04T13:53:26.210Z,8.20
2023-05-04T13:55:53.026Z,7.70
2023-05-04T13:58:19.533Z,8.37
2023-05-04T14:00:46.110Z,7.37
2023-05-04T14:03:12.817Z,8.60
2023-05-04T14:05:39.378Z,7.93
2023-05-04T14:08:05.967Z,8.67
2023-05-04T14:10:32.431Z,8.33
2023-05-04T14:12:59.154Z,9.00
2023-05-04T14:15:27.558Z,8.70
2023-05-04T14:17:54.090Z,7.60
2023-05-04T14:20:20.606Z,9.07
2023-05-04T14:22:47.025Z,8.70
2023-05-04T14:25:14.108Z,9.00
2023-05-04T14:27:41.916Z,6.87
2023-05-04T14:30:09.605Z,7.97
2023-05-04T14:32:36.418Z,7.50
2023-05-04T14:35:10.334Z,7.80
2023-05-04T14:37:37.729Z,7.70
2023-05-04T14:40:07.650Z,6.77
2023-05-04T14:42:34.468Z,6.43
2023-05-04T14:45:01.099Z,6.43
2023-05-04T14:47:28.430Z,6.23
2023-05-04T14:49:55.040Z,6.30
2023-05-04T14:52:22.222Z,4.77
2023-05-04T14:54:48.703Z,5.50
2023-05-04T14:57:15.170Z,5.17
2023-05-04T14:59:42.160Z,5.70
2023-05-04T15:02:09.259Z,6.07
2023-05-04T15:04:36.373Z,5.10
2023-05-04T15:07:02.914Z,5.53
2023-05-04T15:09:29.472Z,6.03
2023-05-04T15:11:56.001Z,6.07
2023-05-04T15:14:22.576Z,5.40
2023-05-04T15:16:49.055Z,5.83
2023-05-04T15:19:15.754Z,4.90
2023-05-04T15:21:42.262Z,5.27
2023-05-04T15:24:08.735Z,5.23
2023-05-04T15:26:36.003Z,4.90
2023-05-04T15:29:02.468Z,4.77
2023-05-04T15:31:28.947Z,5.30
2023-05-04T15:33:55.433Z,4.93
2023-05-04T15:36:23.557Z,4.63
2023-05-04T15:38:50.080Z,4.73
2023-05-04T15:41:16.619Z,4.83
2023-05-04T15:43:43.110Z,4.90
2023-05-04T15:46:09.605Z,4.03
2023-05-04T15:48:36.183Z,4.97
2023-05-04T15:51:02.671Z,4.33
2023-05-04T15:53:29.136Z,3.90
2023-05-04T15:55:55.583Z,4.10
2023-05-04T15:58:22.033Z,4.10
2023-05-04T16:00:48.513Z,4.80
2023-05-04T16:03:15.149Z,4.47
2023-05-04T16:05:41.716Z,4.50
2023-05-04T16:08:08.201Z,4.33
2023-05-04T16:10:34.690Z,4.50
2023-05-04T16:13:05.383Z,4.87
2023-05-04T16:15:31.933Z,4.60
2023-05-04T16:17:58.553Z,4.87
2023-05-04T16:20:25.983Z,4.63
2023-05-04T16:22:52.485Z,4.93
2023-05-04T16:25:19.027Z,4.80
2023-05-04T16:27:45.484Z,5.33
2023-05-04T16:30:12.175Z,5.90
2023-05-04T16:32:38.841Z,5.43
2023-05-04T16:35:05.646Z,4.97
2023-05-04T16:37:34.649Z,4.43
2023-05-04T16:40:08.409Z,4.80
2023-05-04T16:42:34.943Z,5.10
2023-05-04T16:45:01.523Z,5.10
2023-05-04T16:47:28.020Z,5.10
2023-05-04T16:49:54.465Z,5.03
2023-05-04T16:52:21.167Z,5.43
2023-05-04T16:54:47.603Z,5.23
2023-05-04T16:57:14.130Z,5.53
2023-05-04T16:59:40.917Z,6.13
2023-05-04T17:02:08.747Z,5.43
2023-05-04T17:04:35.325Z,5.93
2023-05-04T17:07:01.863Z,6.00
2023-05-04T17:09:31.301Z,5.20
2023-05-04T17:11:57.750Z,6.30
2023-05-04T17:14:24.253Z,6.60
2023-05-04T17:16:50.999Z,6.00
2023-05-04T17:19:17.669Z,6.03
2023-05-04T17:21:44.131Z,5.80
2023-05-04T17:24:10.703Z,6.73
2023-05-04T17:26:37.357Z,6.47
2023-05-04T17:29:03.961Z,5.77
2023-05-04T17:31:30.759Z,6.10
2023-05-04T17:33:57.249Z,6.13
2023-05-04T17:36:23.786Z,5.73
2023-05-04T17:38:50.419Z,6.13
2023-05-04T17:41:17.188Z,5.73
2023-05-04T17:43:43.953Z,5.23
2023-05-04T17:46:10.442Z,5.63
2023-05-04T17:48:37.044Z,6.07
2023-05-04T17:51:07.264Z,5.90
2023-05-04T17:53:33.795Z,5.40
2023-05-04T17:56:00.365Z,5.40
2023-05-04T17:58:26.939Z,5.70
2023-05-04T18:00:53.454Z,6.30
2023-05-04T18:03:20.358Z,5.87
2023-05-04T18:05:47.299Z,5.80
2023-05-04T18:08:13.963Z,5.50
2023-05-04T18:10:41.162Z,5.87
2023-05-04T18:13:07.678Z,5.03
2023-05-04T18:15:34.187Z,5.93
2023-05-04T18:18:00.833Z,6.10
2023-05-04T18:20:27.342Z,7.27
2023-05-04T18:22:53.810Z,6.70
2023-05-04T18:25:20.306Z,7.05
2023-05-04T18:27:46.798Z,7.33
2023-05-04T18:30:13.505Z,7.23
2023-05-04T18:32:40.012Z,6.60
2023-05-04T18:35:06.843Z,6.70
2023-05-04T18:37:33.345Z,7.10
2023-05-04T18:39:59.852Z,6.10
2023-05-04T18:42:26.556Z,6.57
2023-05-04T18:44:56.339Z,7.10
2023-05-04T18:47:22.812Z,6.60
2023-05-04T18:49:50.001Z,6.87
2023-05-04T18:52:16.831Z,6.80
2023-05-04T18:54:43.252Z,7.63
2023-05-04T18:57:10.212Z,6.93
2023-05-04T18:59:36.694Z,8.77
2023-05-04T19:02:03.216Z,7.80
2023-05-04T19:04:29.957Z,8.10
2023-05-04T19:06:59.396Z,6.80
2023-05-04T19:09:25.937Z,9.30
2023-05-04T19:11:52.480Z,8.47
2023-05-04T19:14:18.970Z,7.47
2023-05-04T19:16:45.397Z,7.83
2023-05-04T19:19:11.909Z,8.23
2023-05-04T19:21:38.348Z,7.57
2023-05-04T19:24:04.969Z,6.93
2023-05-04T19:26:31.469Z,7.77
2023-05-04T19:28:57.930Z,7.53
2023-05-04T19:31:24.484Z,7.80
2023-05-04T19:33:52.511Z,8.07
2023-05-04T19:36:19.240Z,7.93
2023-05-04T19:38:45.962Z,7.63
2023-05-04T19:41:13.717Z,8.03
2023-05-04T19:43:40.223Z,7.77
2023-05-04T19:46:06.874Z,8.07
2023-05-04T19:48:33.677Z,7.73
2023-05-04T19:51:00.534Z,7.60
2023-05-04T19:53:27.010Z,7.20
2023-05-04T19:55:53.829Z,7.47
2023-05-04T19:58:21.984Z,7.87
2023-05-04T20:00:48.856Z,7.80
2023-05-04T20:03:17.056Z,7.37
2023-05-04T20:05:43.580Z,7.43
2023-05-04T20:08:10.172Z,7.40
2023-05-04T20:10:36.636Z,7.57
2023-05-04T20:13:03.386Z,6.97
2023-05-04T20:15:29.918Z,7.77
2023-05-04T20:17:56.534Z,7.40
2023-05-04T20:20:23.060Z,7.93
2023-05-04T20:22:52.178Z,7.10
2023-05-04T20:25:19.908Z,7.80
2023-05-04T20:27:48.700Z,7.47
2023-05-04T20:30:15.422Z,7.47
2023-05-04T20:32:42.222Z,8.00
2023-05-04T20:35:09.124Z,8.23
2023-05-04T20:37:35.834Z,8.10
2023-05-04T20:40:02.252Z,8.07
2023-05-04T20:42:29.156Z,7.83
2023-05-04T20:44:55.662Z,8.17
2023-05-04T20:47:22.181Z,8.70
2023-05-04T20:49:48.754Z,7.77
2023-05-04T20:52:15.221Z,7.80
2023-05-04T20:54:41.778Z,7.50
2023-05-04T20:57:08.311Z,7.07
2023-05-04T20:59:34.856Z,7.07
2023-05-04T21:02:01.320Z,7.50
2023-05-04T21:04:27.889Z,7.30
2023-05-04T21:06:54.371Z,7.77
2023-05-04T21:09:21.549Z,7.30
2023-05-04T21:11:48.016Z,7.30
2023-05-04T21:14:14.712Z,7.17
2023-05-04T21:16:41.186Z,7.70
2023-05-04T21:19:07.702Z,8.03
2023-05-04T21:21:37.238Z,8.23
2023-05-04T21:24:03.773Z,7.30
2023-05-04T21:26:30.547Z,6.87
2023-05-04T21:28:56.981Z,7.27
2023-05-04T21:31:23.474Z,7.17
2023-05-04T21:33:51.009Z,6.80
2023-05-04T21:36:17.490Z,7.50
2023-05-04T21:38:43.910Z,7.07
2023-05-04T21:41:14.150Z,7.53
2023-05-04T21:43:40.816Z,7.40
2023-05-04T21:46:08.177Z,7.90
2023-05-04T21:48:35.227Z,7.57
2023-05-04T21:51:01.806Z,6.23
2023-05-04T21:53:33.262Z,7.00
2023-05-04T21:56:00.605Z,7.17
2023-05-04T21:58:27.269Z,7.27
2023-05-04T22:00:54.940Z,7.17
2023-05-04T22:03:21.767Z,7.97
2023-05-04T22:05:53.916Z,7.30
2023-05-04T22:08:21.386Z,7.33
2023-05-04T22:10:48.663Z,7.03
2023-05-04T22:13:15.224Z,7.90
2023-05-04T22:15:49.911Z,6.97
2023-05-04T22:18:17.072Z,7.23
2023-05-04T22:20:43.592Z,6.97
2023-05-04T22:23:10.641Z,7.13
2023-05-04T22:25:37.126Z,7.57
2023-05-04T22:28:03.870Z,6.70
2023-05-04T22:30:30.453Z,7.20
2023-05-04T22:32:57.122Z,7.80
2023-05-04T22:35:23.755Z,9.07
2023-05-04T22:37:50.514Z,7.77
2023-05-04T22:40:17.065Z,8.70
2023-05-04T22:42:46.678Z,8.97
2023-05-04T22:45:17.939Z,8.83
2023-05-04T22:47:45.278Z,8.87
2023-05-04T22:50:11.784Z,9.53
2023-05-04T22:52:38.722Z,9.27
2023-05-04T22:55:05.883Z,9.27
2023-05-04T22:57:32.428Z,8.37
2023-05-04T22:59:58.873Z,8.43
2023-05-04T23:02:25.582Z,8.37
2023-05-04T23:04:53.210Z,8.30
2023-05-04T23:07:19.833Z,9.20
2023-05-04T23:09:46.545Z,9.93
2023-05-04T23:12:13.781Z,10.07
2023-05-04T23:14:40.230Z,9.93
2023-05-04T23:17:06.732Z,8.40
2023-05-04T23:19:33.669Z,8.10
2023-05-04T23:22:00.215Z,7.53
2023-05-04T23:24:26.755Z,8.03
2023-05-04T23:26:53.211Z,7.90
2023-05-04T23:29:20.170Z,7.30
2023-05-04T23:31:46.716Z,7.97
2023-05-04T23:34:13.528Z,8.17
2023-05-04T23:36:40.097Z,8.70
2023-05-04T23:39:06.684Z,8.80
2023-05-04T23:41:33.381Z,8.33
2023-05-04T23:43:59.952Z,8.70
2023-05-04T23:46:26.491Z,8.03
2023-05-04T23:48:53.110Z,8.50
2023-05-04T23:51:19.778Z,8.20
2023-05-04T23:53:46.200Z,8.80
2023-05-04T23:56:14.589Z,7.97
2023-05-04T23:58:41.629Z,8.50
